Time;durP1;ratioP1;P1;durP2;ratioP2;P2;SDS_P1;SDS_P2;PMS_P1;PMS_P2;Temp;Humidity;BMP_temperature;BMP_pressure;BME280_temperature;BME280_humidity;BME280_pressure;Samples;Min_cycle;Max_cycle;Signal;HPM_P1;HPM_P2
2023/10/05 00:01:05;;;;;;;4.53;1.60;;;19.00;57.10;;;;;;5964980;29;20119;-76
2023/10/05 00:04:07;;;;;;;4.75;1.77;;;19.10;57.00;;;;;;5976459;29;20434;-77
2023/10/05 00:07:10;;;;;;;7.30;1.63;;;19.10;56.90;;;;;;5966167;29;20109;-75
2023/10/05 00:10:12;;;;;;;3.55;1.55;;;19.10;56.90;;;;;;5964729;29;20049;-76
2023/10/05 00:13:13;;;;;;;7.15;1.67;;;19.20;56.80;;;;;;5978273;29;20030;-76
2023/10/05 00:16:21;;;;;;;4.47;1.67;;;19.20;56.80;;;;;;5964911;29;20053;-77
2023/10/05 00:19:26;;;;;;;3.70;1.42;;;19.20;56.80;;;;;;5957619;29;20043;-77
2023/10/05 00:22:27;;;;;;;4.75;1.83;;;19.20;56.80;;;;;;5948368;29;20065;-77
2023/10/05 00:25:29;;;;;;;4.53;1.65;;;19.20;56.80;;;;;;5978575;29;20034;-77
2023/10/05 00:28:31;;;;;;;6.60;1.67;;;19.70;57.00;;;;;;5978850;29;20038;-77
2023/10/05 00:31:38;;;;;;;4.43;1.83;;;19.30;56.80;;;;;;5981716;29;20046;-77
2023/10/05 00:34:40;;;;;;;4.28;1.58;;;19.30;57.00;;;;;;5981959;29;20031;-76
2023/10/05 00:37:45;;;;;;;3.45;1.63;;;19.30;57.00;;;;;;5965645;29;20045;-77
2023/10/05 00:40:57;;;;;;;6.30;1.88;;;19.30;57.10;;;;;;5957975;29;20109;-78
2023/10/05 00:43:59;;;;;;;6.88;1.80;;;19.30;57.20;;;;;;5980589;29;20050;-77
2023/10/05 00:47:01;;;;;;;4.78;1.88;;;19.30;57.30;;;;;;5966590;29;20128;-77
2023/10/05 00:50:03;;;;;;;3.53;1.60;;;19.20;57.30;;;;;;5980477;29;20042;-77
2023/10/05 00:53:07;;;;;;;2.60;1.38;;;19.20;57.40;;;;;;5985473;29;20045;-77
2023/10/05 00:56:15;;;;;;;5.72;1.90;;;19.20;57.40;;;;;;5972471;29;20039;-77
2023/10/05 00:59:20;;;;;;;9.88;2.78;;;19.20;57.50;;;;;;5950985;29;20051;-77
2023/10/05 01:02:21;;;;;;;7.15;1.58;;;19.20;57.50;;;;;;5963813;29;20075;-77
2023/10/05 01:05:34;;;;;;;4.00;1.45;;;19.20;57.50;;;;;;5963906;29;20113;-77
2023/10/05 01:08:39;;;;;;;5.60;1.85;;;19.20;57.50;;;;;;5964493;29;20042;-77
2023/10/05 01:11:50;;;;;;;4.50;1.63;;;19.20;57.50;;;;;;5987304;29;20102;-77
2023/10/05 01:14:51;;;;;;;5.88;2.00;;;19.20;57.70;;;;;;5982205;29;20340;-76
2023/10/05 01:17:53;;;;;;;2.70;1.77;;;19.20;57.80;;;;;;5980644;29;20091;-77
2023/10/05 01:20:58;;;;;;;11.80;2.05;;;19.10;57.90;;;;;;5965230;29;20469;-77
2023/10/05 01:23:59;;;;;;;2.95;1.42;;;19.10;58.00;;;;;;5984875;29;20078;-76
2023/10/05 01:26:59;;;;;;;3.35;1.58;;;19.10;58.20;;;;;;5968530;29;20791;-78
2023/10/05 01:30:03;;;;;;;7.22;1.90;;;19.00;58.20;;;;;;5947896;29;20503;-78
2023/10/05 01:33:04;;;;;;;5.88;1.85;;;19.00;58.20;;;;;;5962210;29;20401;-78
2023/10/05 01:36:05;;;;;;;4.90;1.67;;;19.00;58.20;;;;;;5985254;29;20026;-77
2023/10/05 01:39:09;;;;;;;5.90;1.90;;;19.00;58.10;;;;;;5968344;29;20039;-78
2023/10/05 01:42:14;;;;;;;4.22;1.83;;;19.00;58.10;;;;;;5968042;29;20038;-78
2023/10/05 01:45:16;;;;;;;2.00;1.23;;;19.00;58.10;;;;;;5968612;29;20038;-78
2023/10/05 01:48:18;;;;;;;6.45;1.58;;;19.00;58.10;;;;;;5984555;29;20113;-78
2023/10/05 01:51:26;;;;;;;4.07;1.88;;;19.00;58.10;;;;;;5984393;29;20038;-78
2023/10/05 01:54:27;;;;;;;6.32;1.80;;;19.00;58.20;;;;;;5967769;29;20042;-77
2023/10/05 01:57:28;;;;;;;4.40;1.60;;;19.00;58.30;;;;;;5967501;29;20137;-77
2023/10/05 02:00:31;;;;;;;10.18;2.28;;;18.90;58.40;;;;;;5978808;29;20046;-77
2023/10/05 02:03:33;;;;;;;4.68;1.95;;;18.90;58.60;;;;;;5960601;29;20080;-77
2023/10/05 02:06:45;;;;;;;4.63;1.85;;;18.80;58.70;;;;;;5956971;29;20076;-78
2023/10/05 02:09:46;;;;;;;3.55;1.33;;;18.80;58.90;;;;;;5967337;29;20050;-77
2023/10/05 02:13:00;;;;;;;2.63;1.42;;;18.70;59.00;;;;;;5957881;29;20049;-76
2023/10/05 02:16:02;;;;;;;6.40;1.60;;;18.70;59.20;;;;;;5967799;29;20042;-77
2023/10/05 02:19:05;;;;;;;3.40;1.50;;;18.60;59.30;;;;;;5978029;29;20145;-78
2023/10/05 02:22:11;;;;;;;3.15;1.50;;;18.50;59.40;;;;;;5983703;29;20087;-76
2023/10/05 02:25:12;;;;;;;6.35;1.90;;;18.50;59.60;;;;;;5983204;29;20130;-77
2023/10/05 02:28:23;;;;;;;6.57;2.30;;;18.50;59.70;;;;;;5983721;29;20035;-78
2023/10/05 02:31:28;;;;;;;3.08;1.75;;;18.50;59.90;;;;;;5983290;29;20480;-78
2023/10/05 02:34:44;;;;;;;11.18;1.73;;;18.50;59.90;;;;;;5952783;29;20076;-77
2023/10/05 02:37:48;;;;;;;4.32;1.67;;;18.50;59.40;;;;;;5980908;29;20038;-77
2023/10/05 02:40:54;;;;;;;6.38;2.55;;;18.40;59.80;;;;;;5951980;29;20092;-76
2023/10/05 02:43:58;;;;;;;5.05;1.90;;;18.50;59.90;;;;;;5967287;29;20041;-77
2023/10/05 02:46:59;;;;;;;2.67;1.15;;;18.50;59.80;;;;;;5981578;29;20202;-77
2023/10/05 02:50:00;;;;;;;4.85;2.20;;;18.50;59.80;;;;;;5980751;29;20065;-77
2023/10/05 02:53:04;;;;;;;2.33;1.67;;;18.50;59.70;;;;;;5984315;29;20402;-77
2023/10/05 02:56:14;;;;;;;5.68;1.83;;;18.50;59.70;;;;;;5958518;29;20065;-77
2023/10/05 02:59:19;;;;;;;3.30;1.80;;;18.40;59.80;;;;;;5985236;29;20050;-78
2023/10/05 03:02:23;;;;;;;5.15;1.98;;;18.40;60.00;;;;;;5931222;29;20042;-77
2023/10/05 03:05:25;;;;;;;2.40;1.45;;;18.30;60.20;;;;;;5951275;29;20042;-77
2023/10/05 03:08:29;;;;;;;5.22;1.38;;;18.30;60.50;;;;;;5960294;29;20094;-77
2023/10/05 03:11:38;;;;;;;4.53;1.92;;;18.20;60.70;;;;;;5974530;29;20034;-76
2023/10/05 03:14:45;;;;;;;2.67;1.63;;;18.20;61.00;;;;;;5984813;29;20472;-77
2023/10/05 03:17:48;;;;;;;8.03;1.83;;;18.20;61.20;;;;;;5951073;29;20075;-77
2023/10/05 03:20:49;;;;;;;4.72;1.77;;;18.20;61.20;;;;;;5968953;29;20621;-76
2023/10/05 03:23:52;;;;;;;7.18;2.20;;;18.20;61.40;;;;;;5973688;29;20038;-77
2023/10/05 03:26:56;;;;;;;4.28;1.98;;;18.10;61.50;;;;;;5965912;29;20074;-76
2023/10/05 03:30:03;;;;;;;6.57;1.98;;;18.10;61.60;;;;;;5965082;29;20042;-79
2023/10/05 03:33:05;;;;;;;4.10;1.65;;;18.10;61.60;;;;;;5951241;29;20034;-76
2023/10/05 03:36:15;;;;;;;6.57;2.05;;;18.10;61.60;;;;;;5970997;29;20030;-77
2023/10/05 03:39:17;;;;;;;6.05;2.08;;;18.10;61.80;;;;;;5973350;29;20059;-77
2023/10/05 03:42:22;;;;;;;2.35;1.42;;;18.00;61.80;;;;;;5964785;29;20863;-77
2023/10/05 03:45:32;;;;;;;4.53;1.95;;;18.00;62.00;;;;;;5982029;29;20539;-77
2023/10/05 03:48:42;;;;;;;5.70;1.90;;;17.90;62.10;;;;;;5965088;29;20034;-77
2023/10/05 03:51:49;;;;;;;7.78;2.15;;;17.90;62.30;;;;;;5965010;29;20612;-77
2023/10/05 03:55:10;;;;;;;9.98;2.00;;;17.90;62.30;;;;;;5965207;29;20140;-77
2023/10/05 03:58:17;;;;;;;10.25;1.75;;;17.90;62.40;;;;;;5967878;29;20080;-76
2023/10/05 04:01:19;;;;;;;10.38;6.22;;;17.90;62.50;;;;;;5957438;29;20200;-77
2023/10/05 04:04:22;;;;;;;15.13;6.25;;;17.90;62.60;;;;;;5969894;29;20037;-77
2023/10/05 04:07:23;;;;;;;9.52;5.93;;;17.90;62.80;;;;;;5943000;29;20066;-76
2023/10/05 04:10:27;;;;;;;8.23;4.40;;;17.80;62.60;;;;;;5969129;29;20037;-77
2023/10/05 04:13:32;;;;;;;4.05;3.05;;;17.80;62.70;;;;;;5981744;29;20038;-78
2023/10/05 04:16:33;;;;;;;5.03;2.75;;;17.80;62.90;;;;;;5981247;29;20144;-77
2023/10/05 04:19:34;;;;;;;4.28;2.75;;;17.70;62.90;;;;;;5980745;29;20050;-78
2023/10/05 04:22:38;;;;;;;7.32;2.60;;;17.70;63.10;;;;;;5949380;29;20095;-77
2023/10/05 04:25:39;;;;;;;8.50;3.05;;;17.70;63.30;;;;;;5980958;29;20514;-78
2023/10/05 04:28:54;;;;;;;6.45;1.83;;;17.60;63.40;;;;;;5980110;29;20046;-77
2023/10/05 04:31:55;;;;;;;3.90;2.35;;;17.70;63.60;;;;;;5981757;29;20145;-77
2023/10/05 04:34:56;;;;;;;6.63;2.00;;;17.60;63.60;;;;;;5948741;29;20083;-76
2023/10/05 04:37:59;;;;;;;12.07;2.13;;;17.60;63.80;;;;;;5964213;29;20066;-77
2023/10/05 04:41:03;;;;;;;6.72;2.83;;;17.60;63.80;;;;;;5980696;29;20407;-76
2023/10/05 04:44:07;;;;;;;5.90;2.13;;;17.60;64.00;;;;;;5949429;29;20043;-76
2023/10/05 04:47:11;;;;;;;5.13;2.25;;;17.60;64.90;;;;;;5968220;29;20102;-77
2023/10/05 04:50:15;;;;;;;8.15;2.40;;;17.50;64.00;;;;;;5971859;29;20102;-76
2023/10/05 04:53:17;;;;;;;3.72;1.95;;;17.50;64.00;;;;;;5986231;29;20042;-78
2023/10/05 04:56:28;;;;;;;4.00;2.25;;;17.50;64.10;;;;;;5985375;29;20081;-77
2023/10/05 05:02:58;;;;;;;6.25;2.20;;;17.50;63.90;;;;;;5980641;29;20133;-77
2023/10/05 05:09:00;;;;;;;6.63;2.47;;;17.50;63.90;;;;;;5979892;29;20058;-78
2023/10/05 05:12:05;;;;;;;4.53;1.83;;;17.50;64.00;;;;;;5986206;29;20155;-76
2023/10/05 05:15:06;;;;;;;3.80;2.15;;;17.50;64.20;;;;;;5964406;29;20034;-77
2023/10/05 05:18:15;;;;;;;6.70;2.78;;;17.50;64.30;;;;;;5980158;29;20034;-77
2023/10/05 05:21:15;;;;;;;;;;;17.50;64.40;;;;;;5962415;29;20132;-77
2023/10/05 05:24:21;;;;;;;5.05;1.80;;;17.50;64.50;;;;;;5980799;29;20607;-77
2023/10/05 05:27:22;;;;;;;13.57;2.45;;;17.50;64.40;;;;;;5958689;29;20074;-77
2023/10/05 05:30:25;;;;;;;9.25;2.60;;;17.50;64.50;;;;;;5979810;29;20556;-77
2023/10/05 05:33:26;;;;;;;5.55;2.33;;;17.50;64.50;;;;;;5980226;29;20035;-78
2023/10/05 05:36:28;;;;;;;4.55;1.95;;;17.50;65.10;;;;;;5972554;29;20042;-78
2023/10/05 05:39:32;;;;;;;5.53;2.33;;;17.50;64.20;;;;;;5979954;29;20148;-76
2023/10/05 05:42:35;;;;;;;5.13;2.15;;;17.60;64.20;;;;;;5980423;29;20187;-77
2023/10/05 05:45:39;;;;;;;7.53;2.20;;;17.60;64.10;;;;;;5964228;29;20066;-77
2023/10/05 05:48:43;;;;;;;12.05;3.35;;;17.60;64.00;;;;;;5967737;29;20034;-77
2023/10/05 05:51:44;;;;;;;8.27;2.50;;;17.60;64.00;;;;;;5990277;29;20039;-76
2023/10/05 05:54:46;;;;;;;12.25;4.53;;;17.60;64.00;;;;;;5980361;29;20049;-77
2023/10/05 05:57:51;;;;;;;8.25;2.85;;;17.60;64.00;;;;;;5982807;29;20057;-78
2023/10/05 06:00:52;;;;;;;7.20;2.17;;;17.60;64.20;;;;;;5966631;29;20064;-76
2023/10/05 06:03:53;;;;;;;8.30;2.22;;;17.60;64.10;;;;;;5992426;29;20042;-77
2023/10/05 06:06:55;;;;;;;4.57;2.00;;;17.60;64.10;;;;;;5983492;29;20141;-77
2023/10/05 06:09:57;;;;;;;13.77;3.10;;;17.60;64.10;;;;;;5983221;29;20042;-77
2023/10/05 06:12:58;;;;;;;7.57;2.33;;;17.60;64.00;;;;;;5983326;29;20038;-77
2023/10/05 06:15:59;;;;;;;12.50;3.05;;;17.70;63.90;;;;;;5964287;29;20118;-76
2023/10/05 06:19:00;;;;;;;8.48;3.05;;;17.70;63.90;;;;;;5983335;29;20038;-77
2023/10/05 06:22:03;;;;;;;9.15;2.50;;;17.70;63.90;;;;;;5967160;29;20112;-78
2023/10/05 06:25:05;;;;;;;7.38;2.80;;;17.70;63.70;;;;;;5983683;29;20046;-76
2023/10/05 06:28:06;;;;;;;5.20;2.60;;;17.70;63.60;;;;;;5966558;29;20030;-79
2023/10/05 06:31:11;;;;;;;5.60;2.53;;;17.70;63.70;;;;;;5967558;29;20069;-77
2023/10/05 06:34:12;;;;;;;6.95;2.53;;;17.70;63.80;;;;;;5983698;29;20034;-76
2023/10/05 06:37:13;;;;;;;3.97;2.22;;;17.70;63.70;;;;;;5983710;29;20088;-78
2023/10/05 06:40:14;;;;;;;6.55;2.67;;;17.80;63.80;;;;;;5966835;29;20030;-77
2023/10/05 06:43:16;;;;;;;6.80;3.00;;;17.80;63.60;;;;;;5983269;29;20045;-79
2023/10/05 06:46:24;;;;;;;6.28;2.80;;;17.80;63.40;;;;;;5967602;29;20504;-77
2023/10/05 06:49:26;;;;;;;19.15;3.08;;;17.90;63.40;;;;;;5981533;29;20058;-79
2023/10/05 06:52:27;;;;;;;9.18;3.00;;;18.10;62.40;;;;;;5982436;29;20468;-79
2023/10/05 06:55:28;;;;;;;6.95;2.55;;;18.10;62.10;;;;;;5974836;29;20074;-78
2023/10/05 06:58:29;;;;;;;12.32;2.88;;;18.10;62.80;;;;;;5982192;29;20073;-77
2023/10/05 07:01:34;;;;;;;13.13;2.45;;;18.20;62.60;;;;;;5951342;29;20038;-78
2023/10/05 07:04:35;;;;;;;9.90;2.90;;;18.20;62.20;;;;;;5971906;29;20031;-78
2023/10/05 07:07:37;;;;;;;15.82;3.10;;;18.30;62.10;;;;;;5956153;29;20513;-76
2023/10/05 07:10:38;;;;;;;4.45;2.42;;;18.30;62.10;;;;;;5974159;29;20037;-79
2023/10/05 07:13:38;;;;;;;7.68;2.85;;;18.40;62.00;;;;;;5975445;29;20475;-76
2023/10/05 07:16:39;;;;;;;18.77;3.38;;;18.40;61.90;;;;;;5964786;29;20096;-77
2023/10/05 07:19:42;;;;;;;5.72;2.97;;;18.40;61.90;;;;;;5965117;29;20038;-76
2023/10/05 07:22:44;;;;;;;7.38;2.60;;;18.50;61.90;;;;;;5982157;29;20049;-79
2023/10/05 07:25:45;;;;;;;8.38;2.35;;;18.50;61.80;;;;;;5982600;29;20535;-77
2023/10/05 07:28:46;;;;;;;9.38;3.72;;;18.60;61.40;;;;;;5957831;29;20047;-76
2023/10/05 07:31:47;;;;;;;6.57;2.92;;;18.70;61.40;;;;;;5964710;29;20037;-76
2023/10/05 07:34:48;;;;;;;5.53;2.75;;;18.80;61.10;;;;;;5985437;29;20034;-77
2023/10/05 07:37:49;;;;;;;12.32;2.95;;;18.90;60.80;;;;;;5982636;29;20044;-77
2023/10/05 07:40:50;;;;;;;9.05;2.72;;;19.00;60.60;;;;;;5964393;29;20049;-77
2023/10/05 07:43:51;;;;;;;8.32;2.55;;;19.10;60.40;;;;;;5965296;29;20129;-78
2023/10/05 07:46:51;;;;;;;6.63;3.00;;;19.20;60.10;;;;;;5966259;29;20054;-77
2023/10/05 07:49:53;;;;;;;5.57;3.05;;;19.30;59.80;;;;;;5981897;29;20046;-77
2023/10/05 07:52:57;;;;;;;5.82;2.95;;;19.40;59.50;;;;;;5982435;29;20067;-77
2023/10/05 07:55:58;;;;;;;11.32;2.63;;;19.60;59.30;;;;;;5982468;29;20038;-78
2023/10/05 07:58:59;;;;;;;10.80;2.72;;;19.60;59.10;;;;;;5981712;29;20662;-78
2023/10/05 08:02:01;;;;;;;12.00;3.13;;;19.70;59.20;;;;;;5974444;29;20046;-78
2023/10/05 08:05:02;;;;;;;9.20;3.90;;;19.80;58.90;;;;;;5949428;29;20053;-78
2023/10/05 08:08:04;;;;;;;9.30;3.17;;;19.80;58.70;;;;;;5965885;29;20031;-78
2023/10/05 08:11:06;;;;;;;8.65;3.10;;;19.80;58.70;;;;;;5988706;29;20136;-79
2023/10/05 08:14:07;;;;;;;8.52;3.38;;;19.90;58.70;;;;;;5968928;29;20038;-78
2023/10/05 08:17:08;;;;;;;8.90;2.47;;;20.00;58.60;;;;;;5965200;29;20035;-79
2023/10/05 08:20:10;;;;;;;8.73;3.60;;;20.00;58.20;;;;;;5965144;29;20043;-79
2023/10/05 08:23:10;;;;;;;8.50;3.15;;;20.10;58.10;;;;;;5959365;29;20035;-76
2023/10/05 08:26:12;;;;;;;9.85;3.50;;;20.20;58.00;;;;;;5964965;29;20114;-77
2023/10/05 08:29:14;;;;;;;13.57;3.55;;;20.30;57.70;;;;;;5970423;29;20082;-77
2023/10/05 08:32:16;;;;;;;10.65;4.50;;;20.40;57.60;;;;;;5965862;29;20042;-78
2023/10/05 08:35:18;;;;;;;5.85;3.05;;;20.40;57.50;;;;;;5983142;29;20042;-79
2023/10/05 08:38:23;;;;;;;12.65;3.15;;;20.60;57.20;;;;;;5965006;29;20118;-78
2023/10/05 08:41:31;;;;;;;9.50;3.35;;;20.60;57.00;;;;;;5956503;29;20087;-77
2023/10/05 08:44:39;;;;;;;6.05;2.85;;;20.70;56.90;;;;;;5959859;29;20203;-78
2023/10/05 08:47:41;;;;;;;10.18;3.88;;;20.70;56.80;;;;;;5975624;29;20054;-77
2023/10/05 08:50:42;;;;;;;19.58;3.38;;;20.90;56.80;;;;;;5964647;29;20046;-79
2023/10/05 08:53:48;;;;;;;8.70;3.05;;;21.00;56.30;;;;;;5970431;29;20026;-79
2023/10/05 08:56:52;;;;;;;8.00;3.58;;;21.10;56.30;;;;;;5976592;29;20118;-78
2023/10/05 08:59:54;;;;;;;8.20;2.90;;;21.20;56.10;;;;;;5967230;29;20050;-79
2023/10/05 09:02:57;;;;;;;7.38;2.97;;;21.40;55.70;;;;;;5973831;29;20030;-78
2023/10/05 09:06:21;;;;;;;11.60;3.22;;;21.40;55.20;;;;;;5985411;29;20392;-78
2023/10/05 09:09:51;;;;;;;13.95;3.97;;;21.50;55.20;;;;;;5985970;29;20099;-79
2023/10/05 09:13:07;;;;;;;11.00;3.97;;;21.50;55.10;;;;;;5979092;29;20061;-78
2023/10/05 09:16:08;;;;;;;6.03;2.67;;;21.70;54.90;;;;;;5949638;29;20030;-77
2023/10/05 09:19:15;;;;;;;12.80;3.03;;;21.70;54.50;;;;;;5964352;29;20061;-76
2023/10/05 09:22:23;;;;;;;6.88;2.92;;;21.70;54.30;;;;;;5980452;29;20476;-79
2023/10/05 09:25:30;;;;;;;8.32;3.28;;;21.80;54.30;;;;;;5980788;29;20057;-78
2023/10/05 09:28:44;;;;;;;7.30;3.15;;;21.80;54.30;;;;;;5980202;29;20049;-77
2023/10/05 09:31:46;;;;;;;6.03;2.78;;;21.80;54.30;;;;;;5981391;29;20541;-77
2023/10/05 09:34:51;;;;;;;9.73;3.58;;;21.80;54.20;;;;;;5976502;29;20044;-77
2023/10/05 09:37:57;;;;;;;7.75;2.90;;;21.80;54.30;;;;;;5980513;29;20137;-78
2023/10/05 09:41:02;;;;;;;7.88;3.38;;;21.90;54.40;;;;;;5958108;29;20467;-77
2023/10/05 09:44:07;;;;;;;7.70;2.65;;;22.00;54.20;;;;;;5962646;29;20121;-78
2023/10/05 09:47:12;;;;;;;8.15;3.15;;;22.10;54.00;;;;;;5963209;29;20483;-79
2023/10/05 09:50:15;;;;;;;7.13;2.53;;;22.30;53.60;;;;;;5994855;29;20034;-79
2023/10/05 09:53:20;;;;;;;8.68;2.75;;;22.40;53.30;;;;;;5975847;29;20076;-77
2023/10/05 09:56:21;;;;;;;5.15;2.65;;;22.50;53.00;;;;;;5946882;29;20519;-79
2023/10/05 09:59:25;;;;;;;7.28;2.40;;;22.60;52.90;;;;;;5970531;29;20046;-78
2023/10/05 10:02:32;;;;;;;3.72;2.30;;;22.70;52.40;;;;;;6005273;29;20065;-78
2023/10/05 10:05:51;;;;;;;6.07;2.42;;;22.80;52.10;;;;;;5973497;29;20038;-77
2023/10/05 10:09:09;;;;;;;5.15;2.53;;;22.90;51.80;;;;;;5985211;29;20050;-78
2023/10/05 10:12:33;;;;;;;6.75;2.83;;;22.90;51.40;;;;;;5985340;29;20034;-77
2023/10/05 10:15:35;;;;;;;8.38;3.45;;;23.10;51.70;;;;;;5972802;29;20053;-78
2023/10/05 10:18:38;;;;;;;6.18;2.80;;;23.20;51.20;;;;;;5963462;29;20035;-79
2023/10/05 10:21:42;;;;;;;7.30;2.70;;;23.40;50.90;;;;;;5971156;29;20079;-78
2023/10/05 10:24:43;;;;;;;7.75;2.55;;;23.70;50.50;;;;;;5967251;29;20091;-77
2023/10/05 10:27:44;;;;;;;6.15;2.75;;;24.00;49.90;;;;;;5963330;29;20062;-76
2023/10/05 10:31:11;;;;;;;9.75;2.90;;;24.00;48.90;;;;;;5967147;29;20077;-78
2023/10/05 10:34:34;;;;;;;7.53;2.88;;;24.50;49.00;;;;;;5967673;29;20447;-78
2023/10/05 10:37:39;;;;;;;6.57;2.95;;;24.70;48.40;;;;;;5898734;30;20048;-78
2023/10/05 10:40:52;;;;;;;7.50;2.65;;;24.90;48.20;;;;;;5913395;30;20169;-79
2023/10/05 10:43:54;;;;;;;6.63;3.28;;;25.10;47.70;;;;;;5898410;30;20047;-77
2023/10/05 10:47:12;;;;;;;6.50;2.88;;;25.30;47.20;;;;;;5892006;30;20083;-78
2023/10/05 10:50:16;;;;;;;7.68;2.65;;;25.60;46.90;;;;;;5910212;30;20047;-79
2023/10/05 10:53:17;;;;;;;6.63;3.00;;;25.90;46.50;;;;;;5904285;30;20040;-77
2023/10/05 10:56:27;;;;;;;5.65;2.22;;;26.20;45.90;;;;;;5911026;30;20048;-78
2023/10/05 10:59:30;;;;;;;4.55;2.30;;;26.30;45.40;;;;;;5920270;30;20043;-78
2023/10/05 11:02:38;;;;;;;6.75;2.40;;;26.50;44.80;;;;;;5898280;30;20512;-77
2023/10/05 11:05:43;;;;;;;6.40;2.97;;;26.70;44.60;;;;;;5884328;30;20055;-78
2023/10/05 11:08:50;;;;;;;7.57;3.00;;;26.90;44.30;;;;;;5912773;30;20409;-77
2023/10/05 11:11:51;;;;;;;8.13;3.13;;;27.20;43.60;;;;;;5917553;30;20036;-77
2023/10/05 11:15:08;;;;;;;5.30;2.85;;;27.60;43.10;;;;;;5943090;29;20050;-77
2023/10/05 11:18:18;;;;;;;7.18;2.83;;;28.00;42.30;;;;;;5982138;29;20099;-77
2023/10/05 11:21:23;;;;;;;3.47;2.38;;;28.30;41.40;;;;;;5965559;29;20042;-79
2023/10/05 11:24:25;;;;;;;7.43;2.92;;;28.60;40.50;;;;;;5969465;29;20099;-79
2023/10/05 11:27:27;;;;;;;9.93;3.45;;;28.80;40.20;;;;;;6001476;29;20037;-78
2023/10/05 11:30:45;;;;;;;6.32;2.63;;;29.10;39.30;;;;;;5970013;29;20140;-78
2023/10/05 11:33:46;;;;;;;;;;;29.40;38.80;;;;;;5986050;29;20060;-78
2023/10/05 11:36:52;;;;;;;6.63;2.50;;;29.80;38.30;;;;;;5945433;29;19917;-77
2023/10/05 11:39:59;;;;;;;9.88;2.80;;;30.20;37.60;;;;;;5972476;29;20049;-77
2023/10/05 11:43:13;;;;;;;6.80;2.65;;;30.60;36.90;;;;;;5968609;29;20662;-77
2023/10/05 11:49:17;;;;;;;6.47;2.67;;;31.30;35.60;;;;;;5984467;29;20107;-77
2023/10/05 11:52:23;;;;;;;7.22;2.55;;;31.50;34.70;;;;;;5968178;29;20050;-78
2023/10/05 11:55:23;;;;;;;8.02;3.35;;;31.50;34.40;;;;;;5968478;29;20096;-78
2023/10/05 11:58:24;;;;;;;5.40;2.80;;;31.80;34.40;;;;;;5984934;29;20114;-78
2023/10/05 12:01:26;;;;;;;5.55;2.35;;;32.20;33.90;;;;;;5983929;29;20042;-78
2023/10/05 12:04:27;;;;;;;5.78;2.60;;;32.60;33.40;;;;;;5967330;29;20042;-78
2023/10/05 12:07:28;;;;;;;9.65;2.60;;;32.90;32.90;;;;;;5978208;29;20042;-78
2023/10/05 12:10:32;;;;;;;5.53;2.53;;;33.00;32.40;;;;;;5968559;29;20129;-78
2023/10/05 12:13:33;;;;;;;10.57;2.85;;;33.20;32.40;;;;;;5968586;29;20038;-79
2023/10/05 12:16:34;;;;;;;8.30;2.35;;;33.40;31.90;;;;;;5966884;29;20371;-78
2023/10/05 12:19:35;;;;;;;5.38;2.42;;;33.70;31.60;;;;;;5958815;29;20110;-79
2023/10/05 12:22:37;;;;;;;5.80;2.55;;;34.00;31.20;;;;;;5963990;29;20091;-79
2023/10/05 12:25:38;;;;;;;5.90;2.15;;;34.20;31.00;;;;;;5982896;29;20035;-78
2023/10/05 12:28:43;;;;;;;4.60;2.58;;;34.60;30.60;;;;;;5981309;29;20069;-79
2023/10/05 12:31:46;;;;;;;6.95;2.67;;;34.90;30.10;;;;;;5964999;29;20035;-78
2023/10/05 12:34:48;;;;;;;10.90;2.40;;;35.20;29.70;;;;;;5970086;29;20038;-78
2023/10/05 12:37:49;;;;;;;13.02;2.85;;;35.40;29.50;;;;;;5964620;29;20178;-77
2023/10/05 12:40:50;;;;;;;4.65;2.20;;;35.50;29.30;;;;;;5981151;29;20117;-77
2023/10/05 12:43:51;;;;;;;10.73;3.60;;;35.60;29.20;;;;;;5981778;29;20049;-78
2023/10/05 12:46:51;;;;;;;4.85;2.65;;;35.40;29.40;;;;;;5981277;29;20153;-78
2023/10/05 12:49:52;;;;;;;9.00;2.90;;;35.30;29.20;;;;;;5966106;29;20053;-77
2023/10/05 12:52:54;;;;;;;6.90;2.45;;;34.90;29.30;;;;;;5969064;29;20038;-79
2023/10/05 12:55:56;;;;;;;17.30;3.33;;;34.00;30.00;;;;;;5965076;29;20038;-78
2023/10/05 12:58:57;;;;;;;8.85;3.17;;;33.10;31.20;;;;;;5982715;29;20046;-79
2023/10/05 13:02:03;;;;;;;6.90;2.78;;;32.20;32.40;;;;;;5965009;29;20045;-78
2023/10/05 13:05:05;;;;;;;4.75;2.35;;;31.50;33.30;;;;;;5949651;29;20126;-77
2023/10/05 13:08:10;;;;;;;9.30;2.70;;;30.90;34.20;;;;;;5963611;29;20053;-77
2023/10/05 13:11:12;;;;;;;4.85;2.75;;;30.40;35.00;;;;;;5969923;29;20121;-77
2023/10/05 13:14:18;;;;;;;7.50;3.30;;;29.90;35.60;;;;;;5981736;29;20691;-77
2023/10/05 13:17:19;;;;;;;6.38;3.05;;;29.60;36.20;;;;;;5971554;29;20038;-77
2023/10/05 13:20:24;;;;;;;4.93;2.47;;;29.40;36.70;;;;;;5973348;29;20061;-78
2023/10/05 13:23:25;;;;;;;7.65;2.60;;;29.10;37.10;;;;;;5988023;29;20038;-79
2023/10/05 13:26:27;;;;;;;4.50;2.30;;;28.90;37.50;;;;;;5974618;29;20053;-80
2023/10/05 13:29:28;;;;;;;6.20;2.38;;;28.70;37.80;;;;;;5969594;29;20043;-80
2023/10/05 13:32:31;;;;;;;4.63;2.60;;;28.50;38.10;;;;;;5973439;29;20499;-78
2023/10/05 13:35:32;;;;;;;17.08;2.63;;;28.30;38.30;;;;;;5978886;29;20120;-78
2023/10/05 13:38:33;;;;;;;4.20;2.05;;;28.20;38.60;;;;;;5972465;29;20609;-77
2023/10/05 13:41:35;;;;;;;4.15;2.42;;;28.00;38.80;;;;;;5991968;29;20113;-77
2023/10/05 13:44:36;;;;;;;29.83;3.33;;;28.00;38.90;;;;;;6002041;29;20121;-77
2023/10/05 13:47:37;;;;;;;19.02;2.60;;;27.90;39.10;;;;;;5973181;29;20038;-78
2023/10/05 13:50:40;;;;;;;9.07;3.50;;;27.80;39.30;;;;;;5970390;29;20046;-77
2023/10/05 13:53:47;;;;;;;11.00;2.80;;;27.80;39.60;;;;;;5987745;29;20034;-78
2023/10/05 13:56:49;;;;;;;7.72;2.70;;;27.70;39.80;;;;;;5986600;29;20062;-77
2023/10/05 13:59:50;;;;;;;6.25;2.80;;;27.60;40.00;;;;;;5987076;29;20042;-77
2023/10/05 14:02:52;;;;;;;7.47;2.35;;;27.60;40.10;;;;;;5978814;29;20038;-78
2023/10/05 14:06:01;;;;;;;8.95;2.65;;;27.60;40.30;;;;;;5971829;29;20045;-80
2023/10/05 14:09:05;;;;;;;4.22;2.42;;;27.50;40.40;;;;;;5987804;29;20053;-78
2023/10/05 14:12:06;;;;;;;12.45;3.40;;;27.50;40.80;;;;;;5999685;29;20664;-78
2023/10/05 14:15:09;;;;;;;6.05;2.83;;;27.40;41.00;;;;;;5987848;29;20033;-78
2023/10/05 14:18:12;;;;;;;4.13;2.25;;;27.40;41.10;;;;;;5987746;29;20053;-76
2023/10/05 14:21:16;;;;;;;6.65;2.97;;;27.30;41.20;;;;;;5988154;29;20050;-77
2023/10/05 14:24:18;;;;;;;5.78;2.90;;;27.30;41.30;;;;;;5984150;29;20042;-78
2023/10/05 14:27:21;;;;;;;8.18;2.85;;;27.30;41.40;;;;;;5955334;29;20062;-78
2023/10/05 14:30:23;;;;;;;5.30;2.67;;;27.30;41.50;;;;;;5967874;29;20049;-77
2023/10/05 14:33:26;;;;;;;5.05;2.80;;;27.30;41.70;;;;;;5981306;29;20348;-77
2023/10/05 14:36:30;;;;;;;5.40;2.65;;;27.20;41.70;;;;;;5984519;29;20114;-78
2023/10/05 14:39:36;;;;;;;8.65;2.95;;;27.20;42.40;;;;;;5983300;29;20044;-76
2023/10/05 14:42:40;;;;;;;7.55;2.72;;;27.20;41.70;;;;;;5983799;29;20095;-77
2023/10/05 14:45:48;;;;;;;10.23;2.42;;;27.20;41.90;;;;;;5983581;29;20376;-77
2023/10/05 14:48:49;;;;;;;5.97;2.92;;;27.20;42.10;;;;;;5967746;29;20118;-79
2023/10/05 14:51:50;;;;;;;6.95;2.90;;;27.10;42.30;;;;;;5952702;29;20119;-77
2023/10/05 14:54:51;;;;;;;6.40;2.80;;;27.10;42.40;;;;;;5980575;29;20468;-77
2023/10/05 14:57:55;;;;;;;12.00;2.33;;;27.00;42.40;;;;;;5983452;29;20074;-78
2023/10/05 15:00:56;;;;;;;10.95;3.15;;;27.00;42.50;;;;;;5967742;29;20034;-78
2023/10/05 15:03:57;;;;;;;10.25;3.15;;;27.00;42.40;;;;;;5984276;29;20066;-79
2023/10/05 15:06:59;;;;;;;7.63;3.03;;;27.00;42.50;;;;;;5967445;29;20077;-78
2023/10/05 15:10:01;;;;;;;6.85;2.67;;;27.00;42.60;;;;;;5952896;29;20062;-78
2023/10/05 15:13:02;;;;;;;7.20;2.60;;;26.90;42.70;;;;;;5981374;29;20369;-79
2023/10/05 15:16:05;;;;;;;5.72;2.47;;;26.90;42.90;;;;;;5983632;29;20128;-78
2023/10/05 15:19:10;;;;;;;8.45;2.78;;;26.90;42.90;;;;;;5981885;29;20376;-78
2023/10/05 15:22:11;;;;;;;8.55;2.83;;;26.90;43.00;;;;;;5998117;29;20030;-76
2023/10/05 15:25:15;;;;;;;9.90;2.78;;;26.90;43.10;;;;;;5981846;29;20058;-77
2023/10/05 15:28:18;;;;;;;14.05;3.15;;;26.80;43.00;;;;;;5983295;29;20088;-79
2023/10/05 15:31:19;;;;;;;7.78;3.05;;;26.80;43.10;;;;;;5984984;29;20057;-78
2023/10/05 15:34:20;;;;;;;13.30;3.13;;;26.80;43.10;;;;;;5978555;29;20468;-78
2023/10/05 15:37:21;;;;;;;12.02;3.03;;;26.80;43.20;;;;;;5985033;29;20031;-78
2023/10/05 15:40:22;;;;;;;9.13;3.15;;;26.80;43.20;;;;;;5970571;29;20209;-78
2023/10/05 15:43:23;;;;;;;14.88;3.30;;;26.80;43.30;;;;;;5994673;29;20376;-78
2023/10/05 15:46:24;;;;;;;11.23;3.15;;;26.80;43.30;;;;;;5974549;29;20085;-79
2023/10/05 15:49:26;;;;;;;10.15;3.17;;;26.70;43.20;;;;;;5990317;29;20026;-77
2023/10/05 15:52:26;;;;;;;9.50;3.05;;;26.70;43.20;;;;;;5984448;29;20103;-77
2023/10/05 15:55:31;;;;;;;10.38;3.15;;;26.70;43.30;;;;;;5983464;29;20733;-77
2023/10/05 15:58:32;;;;;;;8.13;3.05;;;26.70;43.40;;;;;;5984295;29;20095;-78
2023/10/05 16:01:33;;;;;;;13.88;3.20;;;26.70;43.50;;;;;;5979202;29;20122;-80
2023/10/05 16:04:34;;;;;;;4.70;2.50;;;26.70;43.60;;;;;;5986256;29;20072;-79